sensor_id;sensor_type;location;lat;lon;timestamp;P1;durP1;ratioP1;P2;durP2;ratioP2
61330;SDS011;57640;52.472;-1.950;2023-06-22T00:02:58;4.40;;;3.20;;
61330;SDS011;57640;52.472;-1.950;2023-06-22T00:06:06;5.45;;;3.45;;
61330;SDS011;57640;52.472;-1.950;2023-06-22T00:09:11;4.53;;;3.33;;
61330;SDS011;57640;52.472;-1.950;2023-06-22T00:12:17;4.25;;;3.38;;
61330;SDS011;57640;52.472;-1.950;2023-06-22T00:15:22;3.47;;;3.08;;
61330;SDS011;57640;52.472;-1.950;2023-06-22T00:18:27;4.10;;;3.20;;
61330;SDS011;57640;52.472;-1.950;2023-06-22T00:21:36;5.43;;;3.60;;
61330;SDS011;57640;52.472;-1.950;2023-06-22T00:24:42;3.97;;;3.25;;
61330;SDS011;57640;52.472;-1.950;2023-06-22T00:27:47;4.38;;;3.30;;
61330;SDS011;57640;52.472;-1.950;2023-06-22T00:30:52;4.20;;;3.30;;
61330;SDS011;57640;52.472;-1.950;2023-06-22T00:33:58;4.88;;;3.13;;
61330;SDS011;57640;52.472;-1.950;2023-06-22T00:37:06;4.28;;;3.47;;
61330;SDS011;57640;52.472;-1.950;2023-06-22T00:40:13;5.20;;;3.60;;
61330;SDS011;57640;52.472;-1.950;2023-06-22T00:43:19;3.83;;;3.15;;
61330;SDS011;57640;52.472;-1.950;2023-06-22T00:46:25;4.22;;;2.97;;
61330;SDS011;57640;52.472;-1.950;2023-06-22T00:49:30;4.03;;;3.25;;
61330;SDS011;57640;52.472;-1.950;2023-06-22T00:52:38;4.88;;;3.58;;
61330;SDS011;57640;52.472;-1.950;2023-06-22T00:55:46;4.40;;;3.50;;
61330;SDS011;57640;52.472;-1.950;2023-06-22T00:58:53;4.38;;;3.58;;
61330;SDS011;57640;52.472;-1.950;2023-06-22T01:01:59;4.60;;;4.13;;
61330;SDS011;57640;52.472;-1.950;2023-06-22T01:05:05;5.68;;;3.90;;
61330;SDS011;57640;52.472;-1.950;2023-06-22T01:08:20;4.68;;;3.83;;
61330;SDS011;57640;52.472;-1.950;2023-06-22T01:11:30;4.78;;;4.10;;
61330;SDS011;57640;52.472;-1.950;2023-06-22T01:14:39;6.97;;;4.00;;
61330;SDS011;57640;52.472;-1.950;2023-06-22T01:17:49;5.07;;;4.07;;
61330;SDS011;57640;52.472;-1.950;2023-06-22T01:24:10;4.72;;;4.07;;
61330;SDS011;57640;52.472;-1.950;2023-06-22T01:27:23;5.35;;;4.18;;
61330;SDS011;57640;52.472;-1.950;2023-06-22T01:30:38;4.57;;;4.07;;
61330;SDS011;57640;52.472;-1.950;2023-06-22T01:33:45;4.78;;;3.95;;
61330;SDS011;57640;52.472;-1.950;2023-06-22T01:36:50;4.30;;;3.80;;
61330;SDS011;57640;52.472;-1.950;2023-06-22T01:39:56;4.40;;;3.65;;
61330;SDS011;57640;52.472;-1.950;2023-06-22T01:43:02;4.47;;;3.80;;
61330;SDS011;57640;52.472;-1.950;2023-06-22T01:46:11;4.63;;;3.85;;
61330;SDS011;57640;52.472;-1.950;2023-06-22T01:49:17;5.45;;;3.58;;
61330;SDS011;57640;52.472;-1.950;2023-06-22T01:52:22;3.65;;;3.25;;
61330;SDS011;57640;52.472;-1.950;2023-06-22T01:55:28;4.13;;;3.30;;
61330;SDS011;57640;52.472;-1.950;2023-06-22T01:58:33;4.30;;;2.90;;
61330;SDS011;57640;52.472;-1.950;2023-06-22T02:01:42;6.38;;;3.35;;
61330;SDS011;57640;52.472;-1.950;2023-06-22T02:04:51;3.28;;;2.97;;
61330;SDS011;57640;52.472;-1.950;2023-06-22T02:11:02;3.25;;;2.90;;
61330;SDS011;57640;52.472;-1.950;2023-06-22T02:14:08;3.40;;;3.03;;
61330;SDS011;57640;52.472;-1.950;2023-06-22T02:17:17;3.97;;;3.20;;
61330;SDS011;57640;52.472;-1.950;2023-06-22T02:20:23;4.40;;;3.00;;
61330;SDS011;57640;52.472;-1.950;2023-06-22T02:23:29;3.92;;;3.00;;
61330;SDS011;57640;52.472;-1.950;2023-06-22T02:26:37;4.78;;;2.90;;
61330;SDS011;57640;52.472;-1.950;2023-06-22T02:29:44;4.35;;;3.10;;
61330;SDS011;57640;52.472;-1.950;2023-06-22T02:32:52;3.95;;;2.78;;
61330;SDS011;57640;52.472;-1.950;2023-06-22T02:36:00;6.95;;;3.00;;
61330;SDS011;57640;52.472;-1.950;2023-06-22T02:39:08;4.13;;;2.78;;
61330;SDS011;57640;52.472;-1.950;2023-06-22T02:42:14;3.35;;;2.58;;
61330;SDS011;57640;52.472;-1.950;2023-06-22T02:45:23;3.10;;;2.58;;
61330;SDS011;57640;52.472;-1.950;2023-06-22T02:48:31;4.05;;;2.72;;
61330;SDS011;57640;52.472;-1.950;2023-06-22T02:51:37;3.55;;;2.78;;
61330;SDS011;57640;52.472;-1.950;2023-06-22T02:54:45;3.50;;;2.67;;
61330;SDS011;57640;52.472;-1.950;2023-06-22T02:57:51;4.30;;;2.90;;
61330;SDS011;57640;52.472;-1.950;2023-06-22T03:00:56;3.08;;;2.65;;
61330;SDS011;57640;52.472;-1.950;2023-06-22T03:04:09;3.40;;;2.70;;
61330;SDS011;57640;52.472;-1.950;2023-06-22T03:07:15;4.22;;;2.85;;
61330;SDS011;57640;52.472;-1.950;2023-06-22T03:10:21;4.22;;;2.70;;
61330;SDS011;57640;52.472;-1.950;2023-06-22T03:13:28;3.30;;;2.70;;
61330;SDS011;57640;52.472;-1.950;2023-06-22T03:16:35;3.30;;;2.70;;
61330;SDS011;57640;52.472;-1.950;2023-06-22T03:19:46;3.45;;;2.70;;
61330;SDS011;57640;52.472;-1.950;2023-06-22T03:22:53;2.90;;;2.60;;
61330;SDS011;57640;52.472;-1.950;2023-06-22T03:25:59;3.25;;;2.75;;
61330;SDS011;57640;52.472;-1.950;2023-06-22T03:29:06;3.42;;;2.78;;
61330;SDS011;57640;52.472;-1.950;2023-06-22T03:32:13;3.03;;;2.72;;
61330;SDS011;57640;52.472;-1.950;2023-06-22T03:35:22;3.10;;;2.70;;
61330;SDS011;57640;52.472;-1.950;2023-06-22T03:38:29;3.00;;;2.67;;
61330;SDS011;57640;52.472;-1.950;2023-06-22T03:41:38;3.60;;;2.83;;
61330;SDS011;57640;52.472;-1.950;2023-06-22T03:44:44;3.13;;;2.83;;
61330;SDS011;57640;52.472;-1.950;2023-06-22T03:47:51;3.55;;;2.88;;
61330;SDS011;57640;52.472;-1.950;2023-06-22T03:50:59;3.67;;;3.00;;
61330;SDS011;57640;52.472;-1.950;2023-06-22T03:54:07;3.88;;;3.03;;
61330;SDS011;57640;52.472;-1.950;2023-06-22T03:57:14;4.18;;;3.10;;
61330;SDS011;57640;52.472;-1.950;2023-06-22T04:00:19;3.72;;;3.20;;
61330;SDS011;57640;52.472;-1.950;2023-06-22T04:03:25;4.32;;;3.05;;
61330;SDS011;57640;52.472;-1.950;2023-06-22T04:06:33;3.47;;;3.13;;
61330;SDS011;57640;52.472;-1.950;2023-06-22T04:09:39;3.85;;;3.10;;
61330;SDS011;57640;52.472;-1.950;2023-06-22T04:12:45;4.38;;;3.17;;
61330;SDS011;57640;52.472;-1.950;2023-06-22T04:15:51;4.22;;;3.00;;
61330;SDS011;57640;52.472;-1.950;2023-06-22T04:18:58;4.03;;;3.28;;
61330;SDS011;57640;52.472;-1.950;2023-06-22T04:22:07;4.22;;;3.33;;
61330;SDS011;57640;52.472;-1.950;2023-06-22T04:25:15;4.43;;;3.33;;
61330;SDS011;57640;52.472;-1.950;2023-06-22T04:28:21;5.38;;;3.30;;
61330;SDS011;57640;52.472;-1.950;2023-06-22T04:31:28;4.38;;;3.28;;
61330;SDS011;57640;52.472;-1.950;2023-06-22T04:34:35;4.10;;;3.50;;
61330;SDS011;57640;52.472;-1.950;2023-06-22T04:37:43;4.47;;;3.50;;
61330;SDS011;57640;52.472;-1.950;2023-06-22T04:40:52;4.72;;;3.63;;
61330;SDS011;57640;52.472;-1.950;2023-06-22T04:43:59;6.07;;;3.60;;
61330;SDS011;57640;52.472;-1.950;2023-06-22T04:47:07;4.15;;;3.70;;
61330;SDS011;57640;52.472;-1.950;2023-06-22T04:50:13;3.60;;;3.28;;
61330;SDS011;57640;52.472;-1.950;2023-06-22T04:53:22;4.57;;;3.40;;
61330;SDS011;57640;52.472;-1.950;2023-06-22T04:56:45;5.38;;;3.85;;
61330;SDS011;57640;52.472;-1.950;2023-06-22T05:00:04;4.20;;;3.70;;
61330;SDS011;57640;52.472;-1.950;2023-06-22T05:03:32;4.38;;;3.65;;
61330;SDS011;57640;52.472;-1.950;2023-06-22T05:06:52;4.25;;;3.78;;
61330;SDS011;57640;52.472;-1.950;2023-06-22T05:10:00;4.57;;;3.65;;
61330;SDS011;57640;52.472;-1.950;2023-06-22T05:13:06;6.00;;;4.47;;
61330;SDS011;57640;52.472;-1.950;2023-06-22T05:16:11;5.55;;;4.00;;
61330;SDS011;57640;52.472;-1.950;2023-06-22T05:19:17;5.22;;;4.22;;
61330;SDS011;57640;52.472;-1.950;2023-06-22T05:22:22;6.13;;;4.05;;
61330;SDS011;57640;52.472;-1.950;2023-06-22T05:25:30;5.28;;;3.97;;
61330;SDS011;57640;52.472;-1.950;2023-06-22T05:28:35;5.20;;;4.40;;
61330;SDS011;57640;52.472;-1.950;2023-06-22T05:31:41;4.75;;;3.92;;
61330;SDS011;57640;52.472;-1.950;2023-06-22T05:34:48;5.28;;;4.10;;
61330;SDS011;57640;52.472;-1.950;2023-06-22T05:37:54;4.80;;;4.05;;
61330;SDS011;57640;52.472;-1.950;2023-06-22T05:41:02;5.38;;;4.30;;
61330;SDS011;57640;52.472;-1.950;2023-06-22T05:44:07;5.22;;;4.18;;
61330;SDS011;57640;52.472;-1.950;2023-06-22T05:47:13;5.03;;;4.28;;
61330;SDS011;57640;52.472;-1.950;2023-06-22T05:50:18;4.82;;;3.97;;
61330;SDS011;57640;52.472;-1.950;2023-06-22T05:53:24;5.10;;;3.97;;
61330;SDS011;57640;52.472;-1.950;2023-06-22T05:56:32;5.40;;;4.28;;
61330;SDS011;57640;52.472;-1.950;2023-06-22T05:59:37;5.10;;;4.18;;
61330;SDS011;57640;52.472;-1.950;2023-06-22T06:02:42;5.47;;;4.30;;
61330;SDS011;57640;52.472;-1.950;2023-06-22T06:05:48;5.05;;;4.20;;
61330;SDS011;57640;52.472;-1.950;2023-06-22T06:08:54;6.38;;;4.22;;
61330;SDS011;57640;52.472;-1.950;2023-06-22T06:12:02;5.05;;;4.15;;
61330;SDS011;57640;52.472;-1.950;2023-06-22T06:15:08;4.85;;;4.25;;
61330;SDS011;57640;52.472;-1.950;2023-06-22T06:18:13;4.90;;;4.40;;
61330;SDS011;57640;52.472;-1.950;2023-06-22T06:21:18;5.88;;;4.70;;
61330;SDS011;57640;52.472;-1.950;2023-06-22T06:24:25;5.05;;;4.07;;
61330;SDS011;57640;52.472;-1.950;2023-06-22T06:27:33;5.78;;;4.15;;
61330;SDS011;57640;52.472;-1.950;2023-06-22T06:30:39;5.53;;;4.00;;
61330;SDS011;57640;52.472;-1.950;2023-06-22T06:33:44;5.40;;;4.45;;
61330;SDS011;57640;52.472;-1.950;2023-06-22T06:36:50;4.35;;;3.90;;
61330;SDS011;57640;52.472;-1.950;2023-06-22T06:39:55;4.63;;;4.00;;
61330;SDS011;57640;52.472;-1.950;2023-06-22T06:43:03;4.53;;;3.70;;
61330;SDS011;57640;52.472;-1.950;2023-06-22T06:46:08;3.88;;;3.40;;
61330;SDS011;57640;52.472;-1.950;2023-06-22T06:49:14;4.35;;;3.58;;
61330;SDS011;57640;52.472;-1.950;2023-06-22T06:52:19;3.83;;;3.40;;
61330;SDS011;57640;52.472;-1.950;2023-06-22T06:55:24;3.97;;;3.50;;
61330;SDS011;57640;52.472;-1.950;2023-06-22T06:58:33;4.30;;;3.58;;
61330;SDS011;57640;52.472;-1.950;2023-06-22T07:01:38;4.13;;;3.40;;
61330;SDS011;57640;52.472;-1.950;2023-06-22T07:04:44;5.07;;;3.65;;
61330;SDS011;57640;52.472;-1.950;2023-06-22T07:07:49;6.15;;;3.78;;
61330;SDS011;57640;52.472;-1.950;2023-06-22T07:10:55;5.38;;;3.80;;
61330;SDS011;57640;52.472;-1.950;2023-06-22T07:14:03;4.30;;;3.60;;
61330;SDS011;57640;52.472;-1.950;2023-06-22T07:17:09;4.10;;;3.53;;
61330;SDS011;57640;52.472;-1.950;2023-06-22T07:20:14;4.97;;;3.50;;
61330;SDS011;57640;52.472;-1.950;2023-06-22T07:23:21;5.40;;;3.53;;
61330;SDS011;57640;52.472;-1.950;2023-06-22T07:26:27;5.57;;;3.20;;
61330;SDS011;57640;52.472;-1.950;2023-06-22T07:29:34;3.70;;;2.50;;
61330;SDS011;57640;52.472;-1.950;2023-06-22T07:32:42;3.78;;;3.17;;
61330;SDS011;57640;52.472;-1.950;2023-06-22T07:35:47;5.03;;;2.80;;
61330;SDS011;57640;52.472;-1.950;2023-06-22T07:38:54;3.97;;;2.70;;
61330;SDS011;57640;52.472;-1.950;2023-06-22T07:41:59;5.22;;;2.95;;
61330;SDS011;57640;52.472;-1.950;2023-06-22T07:45:08;3.50;;;2.70;;
61330;SDS011;57640;52.472;-1.950;2023-06-22T07:48:13;3.22;;;2.92;;
61330;SDS011;57640;52.472;-1.950;2023-06-22T07:51:19;5.43;;;3.70;;
61330;SDS011;57640;52.472;-1.950;2023-06-22T07:54:24;5.38;;;3.70;;
61330;SDS011;57640;52.472;-1.950;2023-06-22T07:57:30;4.03;;;3.05;;
61330;SDS011;57640;52.472;-1.950;2023-06-22T08:00:41;3.00;;;2.53;;
61330;SDS011;57640;52.472;-1.950;2023-06-22T08:03:46;7.75;;;5.53;;
61330;SDS011;57640;52.472;-1.950;2023-06-22T08:06:52;18.27;;;11.48;;
61330;SDS011;57640;52.472;-1.950;2023-06-22T08:09:57;22.92;;;14.13;;
61330;SDS011;57640;52.472;-1.950;2023-06-22T08:13:02;25.75;;;15.85;;
61330;SDS011;57640;52.472;-1.950;2023-06-22T08:16:10;23.00;;;14.27;;
61330;SDS011;57640;52.472;-1.950;2023-06-22T08:19:16;17.52;;;11.88;;
61330;SDS011;57640;52.472;-1.950;2023-06-22T08:22:21;11.88;;;8.43;;
61330;SDS011;57640;52.472;-1.950;2023-06-22T08:25:26;9.40;;;7.00;;
61330;SDS011;57640;52.472;-1.950;2023-06-22T08:28:32;10.45;;;6.97;;
61330;SDS011;57640;52.472;-1.950;2023-06-22T08:31:40;9.00;;;6.07;;
61330;SDS011;57640;52.472;-1.950;2023-06-22T08:34:45;8.18;;;5.90;;
61330;SDS011;57640;52.472;-1.950;2023-06-22T08:37:51;6.22;;;4.78;;
61330;SDS011;57640;52.472;-1.950;2023-06-22T08:40:59;6.45;;;4.40;;
61330;SDS011;57640;52.472;-1.950;2023-06-22T08:44:05;7.38;;;4.82;;
61330;SDS011;57640;52.472;-1.950;2023-06-22T08:47:13;5.53;;;4.35;;
61330;SDS011;57640;52.472;-1.950;2023-06-22T08:50:18;5.28;;;4.47;;
61330;SDS011;57640;52.472;-1.950;2023-06-22T08:53:23;4.55;;;4.00;;
61330;SDS011;57640;52.472;-1.950;2023-06-22T08:56:29;5.13;;;3.70;;
61330;SDS011;57640;52.472;-1.950;2023-06-22T08:59:34;4.60;;;3.55;;
61330;SDS011;57640;52.472;-1.950;2023-06-22T09:02:42;5.68;;;4.63;;
61330;SDS011;57640;52.472;-1.950;2023-06-22T09:08:53;4.97;;;4.35;;
61330;SDS011;57640;52.472;-1.950;2023-06-22T09:11:58;6.95;;;4.80;;
61330;SDS011;57640;52.472;-1.950;2023-06-22T09:15:04;7.68;;;4.32;;
61330;SDS011;57640;52.472;-1.950;2023-06-22T09:18:12;7.63;;;4.40;;
61330;SDS011;57640;52.472;-1.950;2023-06-22T09:24:23;4.63;;;3.85;;
61330;SDS011;57640;52.472;-1.950;2023-06-22T09:27:28;4.68;;;4.10;;
61330;SDS011;57640;52.472;-1.950;2023-06-22T09:30:34;4.72;;;4.00;;
61330;SDS011;57640;52.472;-1.950;2023-06-22T09:33:42;6.00;;;4.18;;
61330;SDS011;57640;52.472;-1.950;2023-06-22T09:36:48;5.47;;;4.50;;
61330;SDS011;57640;52.472;-1.950;2023-06-22T09:39:53;4.97;;;4.35;;
61330;SDS011;57640;52.472;-1.950;2023-06-22T09:42:59;5.68;;;4.65;;
61330;SDS011;57640;52.472;-1.950;2023-06-22T09:46:04;5.20;;;4.28;;
61330;SDS011;57640;52.472;-1.950;2023-06-22T09:49:14;4.93;;;3.75;;
61330;SDS011;57640;52.472;-1.950;2023-06-22T09:52:19;4.53;;;3.67;;
61330;SDS011;57640;52.472;-1.950;2023-06-22T09:55:25;5.90;;;4.22;;
61330;SDS011;57640;52.472;-1.950;2023-06-22T09:58:30;9.63;;;4.05;;
61330;SDS011;57640;52.472;-1.950;2023-06-22T10:01:35;6.95;;;3.83;;
61330;SDS011;57640;52.472;-1.950;2023-06-22T10:04:43;5.05;;;4.35;;
61330;SDS011;57640;52.472;-1.950;2023-06-22T10:07:49;6.03;;;3.75;;
61330;SDS011;57640;52.472;-1.950;2023-06-22T10:10:54;5.40;;;3.67;;
61330;SDS011;57640;52.472;-1.950;2023-06-22T10:14:00;4.88;;;3.60;;
61330;SDS011;57640;52.472;-1.950;2023-06-22T10:17:06;6.20;;;3.60;;
61330;SDS011;57640;52.472;-1.950;2023-06-22T10:20:14;6.03;;;4.22;;
61330;SDS011;57640;52.472;-1.950;2023-06-22T10:23:20;7.13;;;4.80;;
61330;SDS011;57640;52.472;-1.950;2023-06-22T10:26:26;6.88;;;4.70;;
61330;SDS011;57640;52.472;-1.950;2023-06-22T10:29:31;7.95;;;4.47;;
61330;SDS011;57640;52.472;-1.950;2023-06-22T10:32:37;6.22;;;4.30;;
61330;SDS011;57640;52.472;-1.950;2023-06-22T10:35:45;5.20;;;3.92;;
61330;SDS011;57640;52.472;-1.950;2023-06-22T10:38:50;6.47;;;3.85;;
61330;SDS011;57640;52.472;-1.950;2023-06-22T10:41:57;5.00;;;4.10;;
61330;SDS011;57640;52.472;-1.950;2023-06-22T10:45:03;5.20;;;3.88;;
61330;SDS011;57640;52.472;-1.950;2023-06-22T10:48:08;5.90;;;4.13;;
61330;SDS011;57640;52.472;-1.950;2023-06-22T10:51:16;7.60;;;4.28;;
61330;SDS011;57640;52.472;-1.950;2023-06-22T10:54:22;4.47;;;3.88;;
61330;SDS011;57640;52.472;-1.950;2023-06-22T10:57:27;4.40;;;3.90;;
61330;SDS011;57640;52.472;-1.950;2023-06-22T11:00:32;3.75;;;3.40;;
61330;SDS011;57640;52.472;-1.950;2023-06-22T11:03:38;4.43;;;3.70;;
61330;SDS011;57640;52.472;-1.950;2023-06-22T11:06:46;4.40;;;3.35;;
61330;SDS011;57640;52.472;-1.950;2023-06-22T11:09:51;4.80;;;3.55;;
61330;SDS011;57640;52.472;-1.950;2023-06-22T11:12:56;6.38;;;3.90;;
61330;SDS011;57640;52.472;-1.950;2023-06-22T11:16:02;3.88;;;3.47;;
61330;SDS011;57640;52.472;-1.950;2023-06-22T11:19:08;4.97;;;3.75;;
61330;SDS011;57640;52.472;-1.950;2023-06-22T11:22:16;4.07;;;3.10;;
61330;SDS011;57640;52.472;-1.950;2023-06-22T11:25:21;4.35;;;3.42;;
61330;SDS011;57640;52.472;-1.950;2023-06-22T11:28:26;4.90;;;3.47;;
61330;SDS011;57640;52.472;-1.950;2023-06-22T11:31:32;4.38;;;3.47;;
61330;SDS011;57640;52.472;-1.950;2023-06-22T11:34:37;4.72;;;3.90;;
61330;SDS011;57640;52.472;-1.950;2023-06-22T11:37:45;5.40;;;4.63;;
61330;SDS011;57640;52.472;-1.950;2023-06-22T11:40:50;7.80;;;4.68;;
61330;SDS011;57640;52.472;-1.950;2023-06-22T11:43:56;5.53;;;4.40;;
61330;SDS011;57640;52.472;-1.950;2023-06-22T11:47:03;5.22;;;4.35;;
61330;SDS011;57640;52.472;-1.950;2023-06-22T11:50:09;5.63;;;4.45;;
61330;SDS011;57640;52.472;-1.950;2023-06-22T11:53:17;4.70;;;3.97;;
61330;SDS011;57640;52.472;-1.950;2023-06-22T11:56:22;5.93;;;4.47;;
61330;SDS011;57640;52.472;-1.950;2023-06-22T11:59:27;5.65;;;4.28;;
61330;SDS011;57640;52.472;-1.950;2023-06-22T12:02:33;4.53;;;3.70;;
61330;SDS011;57640;52.472;-1.950;2023-06-22T12:05:38;5.10;;;4.25;;
61330;SDS011;57640;52.472;-1.950;2023-06-22T12:08:46;5.53;;;4.60;;
61330;SDS011;57640;52.472;-1.950;2023-06-22T12:11:52;5.82;;;4.80;;
61330;SDS011;57640;52.472;-1.950;2023-06-22T12:14:58;5.13;;;4.57;;
61330;SDS011;57640;52.472;-1.950;2023-06-22T12:18:05;5.05;;;4.55;;
61330;SDS011;57640;52.472;-1.950;2023-06-22T12:21:11;4.80;;;3.90;;
61330;SDS011;57640;52.472;-1.950;2023-06-22T12:24:19;4.55;;;4.10;;
61330;SDS011;57640;52.472;-1.950;2023-06-22T12:27:25;5.00;;;4.20;;
61330;SDS011;57640;52.472;-1.950;2023-06-22T12:30:32;4.35;;;3.85;;
61330;SDS011;57640;52.472;-1.950;2023-06-22T12:33:38;3.88;;;3.47;;
61330;SDS011;57640;52.472;-1.950;2023-06-22T12:36:44;4.60;;;4.03;;
61330;SDS011;57640;52.472;-1.950;2023-06-22T12:39:52;4.65;;;3.60;;
61330;SDS011;57640;52.472;-1.950;2023-06-22T12:42:58;3.80;;;3.50;;
61330;SDS011;57640;52.472;-1.950;2023-06-22T12:46:04;5.00;;;3.50;;
61330;SDS011;57640;52.472;-1.950;2023-06-22T12:49:09;4.35;;;3.67;;
61330;SDS011;57640;52.472;-1.950;2023-06-22T12:52:15;4.35;;;3.70;;
61330;SDS011;57640;52.472;-1.950;2023-06-22T12:55:23;4.30;;;3.50;;
61330;SDS011;57640;52.472;-1.950;2023-06-22T12:58:28;3.47;;;3.08;;
61330;SDS011;57640;52.472;-1.950;2023-06-22T13:01:34;4.65;;;3.30;;
61330;SDS011;57640;52.472;-1.950;2023-06-22T13:04:39;3.33;;;3.03;;
61330;SDS011;57640;52.472;-1.950;2023-06-22T13:07:45;4.32;;;3.20;;
61330;SDS011;57640;52.472;-1.950;2023-06-22T13:10:53;3.72;;;2.90;;
61330;SDS011;57640;52.472;-1.950;2023-06-22T13:13:59;3.65;;;2.80;;
61330;SDS011;57640;52.472;-1.950;2023-06-22T13:17:04;3.67;;;3.28;;
61330;SDS011;57640;52.472;-1.950;2023-06-22T13:20:10;4.95;;;3.67;;
61330;SDS011;57640;52.472;-1.950;2023-06-22T13:23:15;4.75;;;3.55;;
61330;SDS011;57640;52.472;-1.950;2023-06-22T13:26:24;5.53;;;3.70;;
61330;SDS011;57640;52.472;-1.950;2023-06-22T13:29:30;4.80;;;3.50;;
61330;SDS011;57640;52.472;-1.950;2023-06-22T13:32:36;4.93;;;3.50;;
61330;SDS011;57640;52.472;-1.950;2023-06-22T13:35:43;4.68;;;3.72;;
61330;SDS011;57640;52.472;-1.950;2023-06-22T13:38:49;5.18;;;3.60;;
61330;SDS011;57640;52.472;-1.950;2023-06-22T13:41:57;4.13;;;3.50;;
61330;SDS011;57640;52.472;-1.950;2023-06-22T13:45:03;4.40;;;3.53;;
61330;SDS011;57640;52.472;-1.950;2023-06-22T13:48:08;4.00;;;3.30;;
61330;SDS011;57640;52.472;-1.950;2023-06-22T13:51:13;3.33;;;2.85;;
61330;SDS011;57640;52.472;-1.950;2023-06-22T13:54:19;3.72;;;2.88;;
61330;SDS011;57640;52.472;-1.950;2023-06-22T13:57:27;4.72;;;3.10;;
61330;SDS011;57640;52.472;-1.950;2023-06-22T14:00:32;3.30;;;2.97;;
61330;SDS011;57640;52.472;-1.950;2023-06-22T14:03:37;3.45;;;2.83;;
61330;SDS011;57640;52.472;-1.950;2023-06-22T14:06:43;3.58;;;3.00;;
61330;SDS011;57640;52.472;-1.950;2023-06-22T14:09:48;4.25;;;3.25;;
61330;SDS011;57640;52.472;-1.950;2023-06-22T14:12:56;3.25;;;2.80;;
61330;SDS011;57640;52.472;-1.950;2023-06-22T14:16:02;3.35;;;3.05;;
61330;SDS011;57640;52.472;-1.950;2023-06-22T14:19:08;3.97;;;3.40;;
61330;SDS011;57640;52.472;-1.950;2023-06-22T14:22:13;4.57;;;3.50;;
61330;SDS011;57640;52.472;-1.950;2023-06-22T14:25:19;3.55;;;3.22;;
61330;SDS011;57640;52.472;-1.950;2023-06-22T14:28:26;5.22;;;3.67;;
61330;SDS011;57640;52.472;-1.950;2023-06-22T14:31:32;4.20;;;3.50;;
61330;SDS011;57640;52.472;-1.950;2023-06-22T14:34:37;4.00;;;3.30;;
61330;SDS011;57640;52.472;-1.950;2023-06-22T14:37:43;3.67;;;3.35;;
61330;SDS011;57640;52.472;-1.950;2023-06-22T14:40:48;3.65;;;3.30;;
61330;SDS011;57640;52.472;-1.950;2023-06-22T14:43:56;3.50;;;3.20;;
61330;SDS011;57640;52.472;-1.950;2023-06-22T14:47:02;4.53;;;3.75;;
61330;SDS011;57640;52.472;-1.950;2023-06-22T14:50:07;4.45;;;4.03;;
61330;SDS011;57640;52.472;-1.950;2023-06-22T14:53:13;4.53;;;3.63;;
61330;SDS011;57640;52.472;-1.950;2023-06-22T14:56:19;4.68;;;4.00;;
61330;SDS011;57640;52.472;-1.950;2023-06-22T14:59:27;4.72;;;4.25;;
61330;SDS011;57640;52.472;-1.950;2023-06-22T15:02:32;5.43;;;4.70;;
61330;SDS011;57640;52.472;-1.950;2023-06-22T15:05:38;5.45;;;4.22;;
61330;SDS011;57640;52.472;-1.950;2023-06-22T15:08:43;5.28;;;4.65;;
61330;SDS011;57640;52.472;-1.950;2023-06-22T15:11:48;5.47;;;4.40;;
61330;SDS011;57640;52.472;-1.950;2023-06-22T15:14:56;7.95;;;5.03;;
61330;SDS011;57640;52.472;-1.950;2023-06-22T15:18:02;5.82;;;5.18;;
61330;SDS011;57640;52.472;-1.950;2023-06-22T15:21:07;5.60;;;5.00;;
61330;SDS011;57640;52.472;-1.950;2023-06-22T15:24:13;6.50;;;4.60;;
61330;SDS011;57640;52.472;-1.950;2023-06-22T15:27:18;4.85;;;4.35;;
61330;SDS011;57640;52.472;-1.950;2023-06-22T15:30:27;5.38;;;4.40;;
61330;SDS011;57640;52.472;-1.950;2023-06-22T15:33:33;4.90;;;4.40;;
61330;SDS011;57640;52.472;-1.950;2023-06-22T15:36:39;5.25;;;4.53;;
61330;SDS011;57640;52.472;-1.950;2023-06-22T15:39:45;5.72;;;4.38;;
61330;SDS011;57640;52.472;-1.950;2023-06-22T15:42:52;7.73;;;4.57;;
61330;SDS011;57640;52.472;-1.950;2023-06-22T15:46:03;4.53;;;4.13;;
61330;SDS011;57640;52.472;-1.950;2023-06-22T15:49:09;4.88;;;4.30;;
61330;SDS011;57640;52.472;-1.950;2023-06-22T15:52:14;5.32;;;4.22;;
61330;SDS011;57640;52.472;-1.950;2023-06-22T15:55:21;5.57;;;4.30;;
61330;SDS011;57640;52.472;-1.950;2023-06-22T15:58:26;4.25;;;3.85;;
61330;SDS011;57640;52.472;-1.950;2023-06-22T16:01:34;5.35;;;4.15;;
61330;SDS011;57640;52.472;-1.950;2023-06-22T16:04:40;5.25;;;4.00;;
61330;SDS011;57640;52.472;-1.950;2023-06-22T16:07:45;4.97;;;4.15;;
61330;SDS011;57640;52.472;-1.950;2023-06-22T16:10:50;4.82;;;4.07;;
61330;SDS011;57640;52.472;-1.950;2023-06-22T16:13:56;4.78;;;4.05;;
61330;SDS011;57640;52.472;-1.950;2023-06-22T16:17:04;7.30;;;5.40;;
61330;SDS011;57640;52.472;-1.950;2023-06-22T16:23:15;6.00;;;5.07;;
61330;SDS011;57640;52.472;-1.950;2023-06-22T16:26:20;5.38;;;4.88;;
61330;SDS011;57640;52.472;-1.950;2023-06-22T16:29:25;4.72;;;4.22;;
61330;SDS011;57640;52.472;-1.950;2023-06-22T16:32:33;4.47;;;4.07;;
61330;SDS011;57640;52.472;-1.950;2023-06-22T16:35:39;5.63;;;3.90;;
61330;SDS011;57640;52.472;-1.950;2023-06-22T16:38:46;5.72;;;3.80;;
61330;SDS011;57640;52.472;-1.950;2023-06-22T16:41:52;4.53;;;3.83;;
61330;SDS011;57640;52.472;-1.950;2023-06-22T16:44:57;3.97;;;3.58;;
61330;SDS011;57640;52.472;-1.950;2023-06-22T16:48:06;4.57;;;3.75;;
61330;SDS011;57640;52.472;-1.950;2023-06-22T16:51:11;4.20;;;3.78;;
61330;SDS011;57640;52.472;-1.950;2023-06-22T16:54:16;4.22;;;3.83;;
61330;SDS011;57640;52.472;-1.950;2023-06-22T16:57:22;4.70;;;4.30;;
61330;SDS011;57640;52.472;-1.950;2023-06-22T17:00:29;4.85;;;4.35;;
61330;SDS011;57640;52.472;-1.950;2023-06-22T17:03:39;4.70;;;4.30;;
61330;SDS011;57640;52.472;-1.950;2023-06-22T17:06:48;4.72;;;4.07;;
61330;SDS011;57640;52.472;-1.950;2023-06-22T17:09:56;4.15;;;3.75;;
61330;SDS011;57640;52.472;-1.950;2023-06-22T17:13:02;4.32;;;3.88;;
61330;SDS011;57640;52.472;-1.950;2023-06-22T17:16:09;4.47;;;3.90;;
61330;SDS011;57640;52.472;-1.950;2023-06-22T17:19:17;4.13;;;3.63;;
61330;SDS011;57640;52.472;-1.950;2023-06-22T17:22:23;6.65;;;3.80;;
61330;SDS011;57640;52.472;-1.950;2023-06-22T17:25:29;6.97;;;3.80;;
61330;SDS011;57640;52.472;-1.950;2023-06-22T17:28:47;6.32;;;4.00;;
61330;SDS011;57640;52.472;-1.950;2023-06-22T17:31:53;4.13;;;3.72;;
61330;SDS011;57640;52.472;-1.950;2023-06-22T17:35:03;4.45;;;3.78;;
61330;SDS011;57640;52.472;-1.950;2023-06-22T17:38:09;4.53;;;3.53;;
61330;SDS011;57640;52.472;-1.950;2023-06-22T17:41:14;4.25;;;3.40;;
61330;SDS011;57640;52.472;-1.950;2023-06-22T17:44:21;4.28;;;3.60;;
61330;SDS011;57640;52.472;-1.950;2023-06-22T17:47:26;4.95;;;3.80;;
61330;SDS011;57640;52.472;-1.950;2023-06-22T17:50:38;4.43;;;3.70;;
61330;SDS011;57640;52.472;-1.950;2023-06-22T17:53:46;4.40;;;3.47;;
61330;SDS011;57640;52.472;-1.950;2023-06-22T17:56:52;4.03;;;3.63;;
61330;SDS011;57640;52.472;-1.950;2023-06-22T17:59:58;3.70;;;3.25;;
61330;SDS011;57640;52.472;-1.950;2023-06-22T18:03:03;3.80;;;3.40;;
61330;SDS011;57640;52.472;-1.950;2023-06-22T18:06:11;3.58;;;3.28;;
61330;SDS011;57640;52.472;-1.950;2023-06-22T18:09:18;3.95;;;3.55;;
61330;SDS011;57640;52.472;-1.950;2023-06-22T18:12:23;3.75;;;3.42;;
61330;SDS011;57640;52.472;-1.950;2023-06-22T18:15:30;3.75;;;3.25;;
61330;SDS011;57640;52.472;-1.950;2023-06-22T18:18:35;3.85;;;3.30;;
61330;SDS011;57640;52.472;-1.950;2023-06-22T18:21:46;3.53;;;3.03;;
61330;SDS011;57640;52.472;-1.950;2023-06-22T18:24:54;4.82;;;3.70;;
61330;SDS011;57640;52.472;-1.950;2023-06-22T18:28:00;4.10;;;3.30;;
61330;SDS011;57640;52.472;-1.950;2023-06-22T18:31:07;4.13;;;2.80;;
61330;SDS011;57640;52.472;-1.950;2023-06-22T18:34:13;3.30;;;2.97;;
61330;SDS011;57640;52.472;-1.950;2023-06-22T18:37:21;3.50;;;3.20;;
61330;SDS011;57640;52.472;-1.950;2023-06-22T18:40:29;3.33;;;3.00;;
61330;SDS011;57640;52.472;-1.950;2023-06-22T18:43:35;4.63;;;3.00;;